Time;durP1;ratioP1;P1;durP2;ratioP2;P2;SDS_P1;SDS_P2;PMS_P1;PMS_P2;Temp;Humidity;BMP_temperature;BMP_pressure;BME280_temperature;BME280_humidity;BME280_pressure;Samples;Min_cycle;Max_cycle;Signal;HPM_P1;HPM_P2
2023/12/05 00:00:42;;;;;;;2.58;1.70;;;9.30;95.00;;;;;;5034145;28;20025;-45
2023/12/05 00:03:08;;;;;;;2.60;1.90;;;9.20;95.10;;;;;;5033564;28;20502;-45
2023/12/05 00:05:33;;;;;;;2.97;2.20;;;9.20;95.90;;;;;;5033979;28;20383;-44
2023/12/05 00:07:59;;;;;;;2.88;2.00;;;9.50;96.00;;;;;;5033535;28;20029;-46
2023/12/05 00:10:24;;;;;;;3.00;2.00;;;9.90;95.60;;;;;;5034164;28;20030;-46
2023/12/05 00:12:50;;;;;;;3.03;1.98;;;10.50;95.10;;;;;;5033367;28;20048;-45
2023/12/05 00:15:16;;;;;;;2.47;1.80;;;11.10;94.30;;;;;;5033953;28;20372;-46
2023/12/05 00:17:41;;;;;;;2.67;1.77;;;11.70;93.40;;;;;;5033073;28;20026;-46
2023/12/05 00:20:07;;;;;;;2.63;2.20;;;12.30;92.10;;;;;;5033188;28;20034;-46
2023/12/05 00:22:33;;;;;;;3.13;1.95;;;12.50;91.30;;;;;;5033360;28;20033;-44
2023/12/05 00:24:58;;;;;;;3.65;2.20;;;12.50;91.00;;;;;;5033096;28;20025;-44
2023/12/05 00:27:24;;;;;;;3.85;1.77;;;12.40;90.90;;;;;;5032914;28;20106;-45
2023/12/05 00:29:50;;;;;;;2.50;1.75;;;12.30;90.90;;;;;;5033046;28;20020;-44
2023/12/05 00:32:15;;;;;;;2.58;1.80;;;12.10;91.10;;;;;;5032993;28;20043;-45
2023/12/05 00:34:44;;;;;;;2.75;1.90;;;11.90;91.20;;;;;;5033669;28;20033;-44
2023/12/05 00:37:10;;;;;;;2.25;1.70;;;11.80;91.40;;;;;;5032646;28;20021;-46
2023/12/05 00:39:35;;;;;;;2.42;1.90;;;11.70;91.50;;;;;;5033382;28;20028;-46
2023/12/05 00:42:01;;;;;;;1.92;1.52;;;11.50;91.70;;;;;;5032870;28;20037;-46
2023/12/05 00:44:27;;;;;;;3.40;1.60;;;11.40;91.80;;;;;;5032841;28;20125;-45
2023/12/05 00:46:52;;;;;;;1.50;1.38;;;11.30;92.00;;;;;;5033173;28;20036;-45
2023/12/05 00:49:18;;;;;;;1.95;1.67;;;11.20;92.10;;;;;;5032625;28;20021;-46
2023/12/05 00:51:44;;;;;;;1.70;1.40;;;11.10;92.30;;;;;;5031341;28;20100;-46
2023/12/05 00:54:09;;;;;;;2.10;1.67;;;11.00;92.40;;;;;;5032879;28;20108;-46
2023/12/05 00:56:36;;;;;;;2.67;1.50;;;10.90;92.60;;;;;;5032464;28;20025;-44
2023/12/05 00:59:02;;;;;;;2.33;1.63;;;10.80;92.70;;;;;;5032378;28;20028;-46
2023/12/05 01:01:28;;;;;;;2.00;1.42;;;10.70;93.10;;;;;;5032604;28;20018;-46
2023/12/05 01:03:56;;;;;;;1.95;1.40;;;10.60;92.90;;;;;;5032500;28;20484;-46
2023/12/05 01:06:23;;;;;;;2.80;1.60;;;10.60;93.00;;;;;;5032399;28;20024;-46
2023/12/05 01:08:49;;;;;;;1.67;1.20;;;10.50;93.40;;;;;;5033065;28;20566;-45
2023/12/05 01:11:16;;;;;;;2.05;1.60;;;10.40;93.20;;;;;;5032254;28;20105;-44
2023/12/05 01:13:43;;;;;;;2.10;1.50;;;10.40;93.30;;;;;;5032308;28;20104;-46
2023/12/05 01:16:09;;;;;;;2.53;1.60;;;10.30;93.40;;;;;;5032201;28;20025;-45
2023/12/05 01:18:36;;;;;;;1.90;1.55;;;10.30;93.50;;;;;;5032055;28;20063;-46
2023/12/05 01:21:02;;;;;;;1.80;1.58;;;10.20;93.60;;;;;;5032262;28;20025;-44
2023/12/05 01:23:27;;;;;;;1.77;1.52;;;10.20;93.70;;;;;;5032626;28;20417;-46
2023/12/05 01:25:53;;;;;;;1.83;1.50;;;10.10;93.70;;;;;;5032012;28;20029;-46
2023/12/05 01:28:18;;;;;;;1.83;1.40;;;10.10;93.80;;;;;;5031817;28;20037;-46
2023/12/05 01:30:44;;;;;;;2.10;1.58;;;10.00;93.90;;;;;;5032595;28;20037;-45
2023/12/05 01:33:10;;;;;;;1.90;1.60;;;10.00;93.90;;;;;;5031955;28;20025;-45
2023/12/05 01:35:35;;;;;;;2.17;1.67;;;9.90;94.00;;;;;;5031814;28;20022;-44
2023/12/05 01:38:01;;;;;;;1.92;1.60;;;9.90;94.10;;;;;;5032182;28;20026;-44
2023/12/05 01:40:27;;;;;;;2.10;1.63;;;9.90;94.10;;;;;;5032387;28;20065;-46
2023/12/05 01:42:52;;;;;;;2.55;1.55;;;9.80;94.20;;;;;;5032305;28;20036;-46
2023/12/05 01:45:18;;;;;;;2.35;1.50;;;9.80;94.20;;;;;;5031753;28;20021;-46
2023/12/05 01:47:44;;;;;;;2.22;1.58;;;9.80;94.30;;;;;;5031405;28;20029;-44
2023/12/05 01:50:29;;;;;;;2.95;1.98;;;9.70;94.30;;;;;;5031625;28;20025;-44
2023/12/05 01:52:58;;;;;;;2.65;1.85;;;9.70;94.40;;;;;;5031933;28;20212;-45
2023/12/05 01:55:26;;;;;;;1.65;1.50;;;9.70;94.50;;;;;;5031504;28;20029;-46
2023/12/05 01:57:53;;;;;;;2.38;1.75;;;9.70;94.50;;;;;;5031443;28;20069;-45
2023/12/05 02:00:20;;;;;;;2.00;1.65;;;9.60;94.50;;;;;;5031465;28;20021;-46
2023/12/05 02:02:47;;;;;;;2.72;1.80;;;9.60;94.60;;;;;;5032296;28;20113;-45
2023/12/05 02:05:14;;;;;;;1.63;1.40;;;9.60;94.60;;;;;;5031454;28;20033;-46
2023/12/05 02:07:41;;;;;;;2.70;1.80;;;9.60;94.60;;;;;;5031006;28;20034;-44
2023/12/05 02:10:07;;;;;;;2.05;1.77;;;9.50;94.70;;;;;;5031357;28;20096;-46
2023/12/05 02:12:33;;;;;;;2.38;1.70;;;9.50;95.10;;;;;;5031524;28;20029;-44
2023/12/05 02:14:59;;;;;;;2.33;1.70;;;9.50;94.70;;;;;;5031741;28;20380;-46
2023/12/05 02:17:31;;;;;;;2.20;1.65;;;9.50;94.80;;;;;;5031518;28;20071;-45
2023/12/05 02:20:07;;;;;;;2.33;1.73;;;9.50;94.80;;;;;;5031800;28;20041;-44
2023/12/05 02:22:59;;;;;;;2.60;1.80;;;9.50;94.80;;;;;;5031202;28;20033;-46
2023/12/05 02:25:42;;;;;;;2.38;1.77;;;9.40;94.90;;;;;;5029042;28;20041;-44
2023/12/05 02:28:09;;;;;;;2.78;1.73;;;9.40;94.90;;;;;;5031508;28;20037;-44
2023/12/05 02:30:35;;;;;;;2.55;1.90;;;9.40;95.00;;;;;;5031893;28;20021;-45
2023/12/05 02:33:01;;;;;;;2.95;1.83;;;9.40;95.00;;;;;;5031193;28;20028;-45
2023/12/05 02:35:27;;;;;;;2.13;1.92;;;9.40;95.00;;;;;;5031369;28;20029;-45
2023/12/05 02:38:07;;;;;;;2.75;1.65;;;9.40;95.00;;;;;;5031427;28;20387;-45
2023/12/05 02:40:41;;;;;;;2.13;1.65;;;9.30;95.00;;;;;;5031018;28;20057;-46
2023/12/05 02:43:17;;;;;;;2.60;1.80;;;9.30;95.10;;;;;;5031341;28;20025;-46
2023/12/05 02:45:46;;;;;;;3.45;1.92;;;9.40;95.10;;;;;;5030790;28;20042;-45
2023/12/05 02:48:12;;;;;;;2.58;1.95;;;9.30;95.10;;;;;;5031280;28;20500;-45
2023/12/05 02:50:38;;;;;;;2.30;1.90;;;9.30;95.10;;;;;;5031003;28;20026;-46
2023/12/05 02:53:03;;;;;;;2.70;2.05;;;9.30;95.20;;;;;;5031817;28;20506;-44
2023/12/05 02:55:29;;;;;;;3.50;2.38;;;9.30;95.20;;;;;;5031150;28;20029;-44
2023/12/05 02:57:54;;;;;;;2.83;2.05;;;9.30;95.20;;;;;;5030837;28;20036;-44
2023/12/05 03:00:20;;;;;;;2.55;2.10;;;9.30;95.20;;;;;;5033455;28;20026;-45
2023/12/05 03:02:46;;;;;;;2.95;2.15;;;9.30;95.30;;;;;;5035033;28;20048;-45
2023/12/05 03:05:11;;;;;;;3.45;2.38;;;9.30;96.10;;;;;;5034627;28;20053;-45
2023/12/05 03:07:37;;;;;;;3.05;2.17;;;9.50;96.20;;;;;;5034256;28;20084;-45
2023/12/05 03:10:04;;;;;;;2.50;2.03;;;9.90;95.90;;;;;;5034352;28;20056;-44
2023/12/05 03:12:33;;;;;;;2.55;2.03;;;10.40;95.40;;;;;;5034540;28;20025;-45
2023/12/05 03:14:59;;;;;;;2.78;2.00;;;11.00;94.70;;;;;;5035150;28;20021;-45
2023/12/05 03:17:25;;;;;;;2.92;2.35;;;11.70;93.80;;;;;;5035252;28;20034;-46
2023/12/05 03:19:50;;;;;;;2.90;2.05;;;12.30;92.60;;;;;;5034423;28;20550;-45
2023/12/05 03:22:16;;;;;;;2.35;2.10;;;12.50;91.70;;;;;;5034885;28;20037;-45
2023/12/05 03:24:41;;;;;;;2.60;1.90;;;12.60;91.30;;;;;;5034240;28;20702;-43
2023/12/05 03:27:07;;;;;;;2.60;1.90;;;12.40;91.10;;;;;;5033975;28;20483;-43
2023/12/05 03:29:33;;;;;;;2.33;1.90;;;12.30;91.20;;;;;;5035056;28;20022;-44
2023/12/05 03:31:59;;;;;;;2.60;1.90;;;12.20;91.30;;;;;;5034262;28;20021;-44
2023/12/05 03:34:24;;;;;;;2.30;1.60;;;12.00;91.40;;;;;;5034295;28;20021;-44
2023/12/05 03:36:50;;;;;;;2.58;1.90;;;11.80;91.60;;;;;;5034728;28;20029;-44
2023/12/05 03:39:16;;;;;;;2.00;1.70;;;11.70;91.70;;;;;;5034659;28;20033;-44
2023/12/05 03:41:43;;;;;;;2.63;1.70;;;11.60;91.90;;;;;;5034083;28;20383;-44
2023/12/05 03:44:09;;;;;;;2.33;1.85;;;11.50;92.40;;;;;;5033940;28;20028;-43
2023/12/05 03:46:34;;;;;;;2.10;1.50;;;11.30;92.20;;;;;;5035212;28;20018;-44
2023/12/05 03:49:00;;;;;;;2.20;1.40;;;11.20;92.40;;;;;;5033742;28;20025;-44
2023/12/05 03:51:26;;;;;;;2.05;1.60;;;11.10;92.50;;;;;;5034185;28;20455;-45
2023/12/05 03:53:51;;;;;;;2.22;1.50;;;11.00;92.60;;;;;;5033790;28;20029;-44
2023/12/05 03:56:17;;;;;;;2.22;1.60;;;11.00;92.80;;;;;;5034008;28;20049;-45
2023/12/05 03:58:42;;;;;;;2.00;1.58;;;10.80;92.90;;;;;;5033614;28;20044;-45
2023/12/05 04:01:08;;;;;;;1.60;1.48;;;10.80;93.00;;;;;;5033494;28;20033;-45
2023/12/05 04:03:35;;;;;;;1.60;1.45;;;10.70;93.10;;;;;;5034044;28;20034;-45
2023/12/05 04:06:01;;;;;;;3.08;1.63;;;10.60;93.20;;;;;;5033468;28;20109;-43
2023/12/05 04:08:26;;;;;;;2.25;1.65;;;10.60;93.40;;;;;;5033439;28;20463;-44
2023/12/05 04:10:52;;;;;;;2.13;1.60;;;10.50;93.40;;;;;;5033748;28;20037;-46
2023/12/05 04:13:17;;;;;;;1.75;1.40;;;10.40;93.50;;;;;;5033812;28;20067;-45
2023/12/05 04:15:43;;;;;;;2.13;1.65;;;10.40;93.60;;;;;;5034234;28;20029;-45
2023/12/05 04:18:09;;;;;;;2.53;1.90;;;10.30;93.70;;;;;;5033510;28;20035;-45
2023/12/05 04:20:34;;;;;;;2.20;1.60;;;10.30;93.80;;;;;;5033819;28;20072;-46
2023/12/05 04:23:00;;;;;;;2.22;1.60;;;10.20;93.90;;;;;;5033491;28;20045;-45
2023/12/05 04:25:26;;;;;;;1.83;1.50;;;10.20;93.90;;;;;;5033644;28;20026;-46
2023/12/05 04:27:51;;;;;;;2.42;1.58;;;10.10;94.00;;;;;;5033349;28;20467;-46
2023/12/05 04:30:17;;;;;;;1.88;1.40;;;10.10;94.10;;;;;;5032968;28;20025;-44
2023/12/05 04:32:42;;;;;;;2.15;1.50;;;10.10;94.10;;;;;;5033068;28;20032;-46
2023/12/05 04:35:08;;;;;;;2.20;1.48;;;10.00;94.20;;;;;;5033140;28;20033;-44
2023/12/05 04:37:34;;;;;;;2.35;1.85;;;10.00;94.60;;;;;;5033413;28;20040;-45
2023/12/05 04:40:00;;;;;;;3.40;1.67;;;9.90;94.30;;;;;;5033103;28;20116;-46
2023/12/05 04:42:25;;;;;;;1.90;1.50;;;9.90;94.40;;;;;;5033132;28;20112;-44
2023/12/05 04:44:51;;;;;;;1.70;1.40;;;9.80;94.40;;;;;;5033140;28;20060;-46
2023/12/05 04:47:17;;;;;;;1.77;1.50;;;9.80;94.50;;;;;;5032582;28;20033;-44
2023/12/05 04:49:42;;;;;;;2.15;1.25;;;9.80;94.50;;;;;;5032732;28;20021;-46
2023/12/05 04:52:08;;;;;;;1.48;1.35;;;9.80;94.60;;;;;;5033092;28;20052;-46
2023/12/05 04:54:33;;;;;;;1.92;1.40;;;9.70;94.60;;;;;;5032878;28;20100;-46
2023/12/05 04:56:59;;;;;;;1.85;1.42;;;9.70;94.70;;;;;;5033114;28;20029;-43
2023/12/05 04:59:24;;;;;;;2.75;1.45;;;9.70;94.70;;;;;;5032377;28;20034;-44
2023/12/05 05:01:50;;;;;;;2.13;1.73;;;9.70;94.80;;;;;;5032554;28;20032;-46
2023/12/05 05:04:16;;;;;;;2.65;1.77;;;9.60;95.50;;;;;;5032464;28;20339;-44
2023/12/05 05:06:41;;;;;;;2.03;1.60;;;9.70;95.70;;;;;;5032324;28;20032;-45
2023/12/05 05:09:07;;;;;;;2.33;1.83;;;10.10;95.60;;;;;;5032203;28;20498;-44
2023/12/05 05:11:33;;;;;;;2.13;1.70;;;10.50;95.20;;;;;;5032505;28;20056;-45
2023/12/05 05:13:58;;;;;;;2.58;1.60;;;11.10;94.60;;;;;;5032473;28;20083;-46
2023/12/05 05:16:24;;;;;;;1.85;1.52;;;11.70;93.80;;;;;;5032422;28;20064;-46
2023/12/05 05:18:52;;;;;;;2.25;1.70;;;12.40;92.80;;;;;;5032095;28;20052;-45
2023/12/05 05:21:17;;;;;;;1.65;1.40;;;12.70;91.70;;;;;;5032135;28;20064;-45
2023/12/05 05:23:43;;;;;;;1.80;1.40;;;12.80;91.20;;;;;;5031892;28;20033;-46
2023/12/05 05:26:08;;;;;;;1.50;1.15;;;12.70;91.00;;;;;;5032914;28;20382;-44
2023/12/05 05:28:34;;;;;;;1.67;1.35;;;12.60;91.00;;;;;;5033199;28;20092;-45
2023/12/05 05:31:01;;;;;;;2.25;1.40;;;12.40;91.10;;;;;;5032171;28;20060;-46
2023/12/05 05:33:26;;;;;;;1.55;0.98;;;12.30;91.20;;;;;;5032387;28;20049;-46
2023/12/05 05:35:52;;;;;;;2.10;1.02;;;12.10;91.40;;;;;;5031858;28;20068;-44
2023/12/05 05:38:18;;;;;;;2.65;1.25;;;12.00;91.60;;;;;;5032402;28;20037;-46
2023/12/05 05:40:43;;;;;;;2.03;1.35;;;11.80;91.70;;;;;;5032225;28;20041;-45
2023/12/05 05:43:09;;;;;;;2.35;1.27;;;11.70;91.90;;;;;;5031655;28;20056;-46
2023/12/05 05:45:35;;;;;;;1.67;1.35;;;11.60;92.00;;;;;;5031889;28;20104;-46
2023/12/05 05:48:01;;;;;;;1.70;1.30;;;11.50;92.20;;;;;;5031706;28;20032;-46
2023/12/05 05:50:26;;;;;;;1.85;1.40;;;11.40;92.30;;;;;;5031662;28;20024;-46
2023/12/05 05:52:52;;;;;;;1.40;1.10;;;11.20;92.50;;;;;;5031910;28;20029;-45
2023/12/05 05:55:24;;;;;;;1.50;1.20;;;11.10;92.60;;;;;;5031726;28;20541;-45
2023/12/05 05:57:50;;;;;;;1.80;1.10;;;11.00;92.70;;;;;;5031941;28;20057;-45
2023/12/05 06:00:17;;;;;;;1.92;1.30;;;11.00;92.90;;;;;;5031503;28;20034;-46
2023/12/05 06:02:42;;;;;;;1.73;1.20;;;10.90;93.00;;;;;;5032661;28;20026;-45
2023/12/05 06:05:08;;;;;;;1.27;1.10;;;10.80;93.10;;;;;;5032182;28;20475;-46
2023/12/05 06:07:34;;;;;;;1.90;1.00;;;10.70;93.20;;;;;;5031153;28;20037;-46
2023/12/05 06:09:59;;;;;;;1.10;1.00;;;10.70;93.30;;;;;;5031773;28;20036;-46
2023/12/05 06:12:26;;;;;;;1.80;1.13;;;10.60;93.40;;;;;;5031334;28;20163;-44
2023/12/05 06:14:51;;;;;;;1.60;1.17;;;10.60;93.50;;;;;;5031681;28;20032;-46
2023/12/05 06:17:17;;;;;;;1.50;1.20;;;10.50;93.70;;;;;;5031449;28;20025;-46
2023/12/05 06:19:42;;;;;;;2.35;0.93;;;10.50;93.80;;;;;;5031808;28;20418;-44
2023/12/05 06:22:08;;;;;;;1.73;0.90;;;10.50;93.90;;;;;;5031744;28;20040;-46
2023/12/05 06:24:34;;;;;;;1.23;1.08;;;10.50;94.00;;;;;;5031599;28;20040;-46
2023/12/05 06:26:59;;;;;;;1.35;1.10;;;10.50;94.00;;;;;;5031431;28;20104;-45
2023/12/05 06:29:25;;;;;;;1.50;0.90;;;10.40;94.10;;;;;;5031861;28;20022;-46
2023/12/05 06:31:51;;;;;;;1.40;1.08;;;10.50;94.00;;;;;;5031186;28;20021;-46
2023/12/05 06:34:16;;;;;;;1.35;1.00;;;10.50;94.10;;;;;;5031236;28;20025;-46
2023/12/05 06:36:42;;;;;;;1.10;0.90;;;10.50;94.00;;;;;;5035216;28;20061;-46
2023/12/05 06:39:08;;;;;;;3.33;1.20;;;10.50;94.00;;;;;;5035330;28;20025;-46
2023/12/05 06:41:35;;;;;;;1.60;1.13;;;10.40;94.00;;;;;;5035182;28;20021;-46
2023/12/05 06:44:02;;;;;;;1.90;1.10;;;10.40;94.00;;;;;;5035317;28;20574;-45
2023/12/05 06:46:28;;;;;;;1.52;1.00;;;10.50;94.00;;;;;;5034954;28;20111;-46
2023/12/05 06:48:53;;;;;;;2.35;1.08;;;10.50;94.00;;;;;;5034864;28;20049;-45
2023/12/05 06:51:19;;;;;;;1.10;1.00;;;10.40;94.00;;;;;;5034911;28;20498;-46
2023/12/05 06:53:46;;;;;;;2.53;1.30;;;10.50;94.10;;;;;;5035080;28;20087;-46
2023/12/05 06:56:14;;;;;;;1.10;0.90;;;10.50;94.10;;;;;;5036053;28;20021;-45
2023/12/05 06:58:39;;;;;;;1.40;1.00;;;10.40;94.10;;;;;;5033424;28;20029;-45
2023/12/05 07:01:06;;;;;;;1.60;1.00;;;10.50;94.10;;;;;;5035273;28;20041;-46
2023/12/05 07:03:31;;;;;;;1.85;1.30;;;10.50;94.10;;;;;;5035022;28;20036;-45
2023/12/05 07:05:57;;;;;;;1.10;1.00;;;10.50;94.10;;;;;;5034634;28;20107;-45
2023/12/05 07:08:23;;;;;;;0.80;0.70;;;10.50;94.10;;;;;;5034550;28;20033;-45
2023/12/05 07:10:49;;;;;;;1.48;1.00;;;10.50;94.00;;;;;;5034733;28;20044;-45
2023/12/05 07:13:15;;;;;;;1.65;0.80;;;10.50;94.40;;;;;;5034696;28;20449;-44
2023/12/05 07:15:41;;;;;;;1.15;1.00;;;10.50;94.00;;;;;;5035228;28;20503;-46
2023/12/05 07:18:07;;;;;;;1.20;0.93;;;10.50;94.00;;;;;;5034437;28;20033;-46
2023/12/05 07:20:33;;;;;;;2.03;0.85;;;10.50;94.00;;;;;;5034470;28;20116;-46
2023/12/05 07:22:59;;;;;;;1.48;1.00;;;10.60;94.00;;;;;;5034233;28;20116;-45
2023/12/05 07:25:24;;;;;;;1.33;0.90;;;10.60;94.00;;;;;;5034220;28;20017;-44
2023/12/05 07:27:50;;;;;;;1.10;0.85;;;10.60;93.90;;;;;;5034981;28;20036;-45
2023/12/05 07:30:16;;;;;;;1.10;0.80;;;10.60;93.90;;;;;;5034713;28;20101;-44
2023/12/05 07:32:42;;;;;;;1.75;0.80;;;10.60;93.90;;;;;;5035288;28;20032;-46
2023/12/05 07:35:08;;;;;;;1.48;0.82;;;10.60;93.90;;;;;;5035218;28;20044;-46
2023/12/05 07:37:33;;;;;;;1.55;0.93;;;10.60;93.90;;;;;;5034685;28;20130;-46
2023/12/05 07:39:59;;;;;;;1.00;0.80;;;10.60;93.90;;;;;;5034758;28;20041;-45
2023/12/05 07:42:25;;;;;;;1.23;0.80;;;10.70;93.90;;;;;;5034086;28;20029;-45
2023/12/05 07:44:51;;;;;;;1.23;0.80;;;10.70;93.90;;;;;;5033937;28;20025;-46
2023/12/05 07:47:16;;;;;;;1.60;1.00;;;10.70;93.90;;;;;;5033348;28;20033;-46
2023/12/05 07:49:44;;;;;;;1.33;0.90;;;10.80;93.90;;;;;;5034663;28;20108;-45
2023/12/05 07:52:10;;;;;;;1.25;0.90;;;10.80;93.90;;;;;;5034463;28;20025;-46
2023/12/05 07:54:36;;;;;;;1.58;0.98;;;10.80;93.80;;;;;;5033853;28;20021;-46
2023/12/05 07:57:01;;;;;;;1.52;1.00;;;10.80;93.80;;;;;;5033738;28;20471;-44
2023/12/05 07:59:27;;;;;;;1.55;1.00;;;10.90;93.80;;;;;;5033609;28;20018;-45
2023/12/05 08:01:53;;;;;;;1.27;0.80;;;11.00;93.80;;;;;;5033718;28;20064;-45
2023/12/05 08:04:18;;;;;;;1.55;0.77;;;11.00;93.80;;;;;;5033670;28;20026;-44
2023/12/05 08:06:44;;;;;;;1.23;0.90;;;11.00;93.70;;;;;;5033656;28;20514;-46
2023/12/05 08:09:09;;;;;;;1.50;0.90;;;11.10;93.70;;;;;;5033341;28;20022;-46
2023/12/05 08:11:35;;;;;;;1.00;0.80;;;11.10;93.70;;;;;;5033514;28;20475;-46
2023/12/05 08:14:02;;;;;;;1.73;0.90;;;11.20;93.60;;;;;;5033439;28;20032;-45
2023/12/05 08:16:27;;;;;;;1.52;0.88;;;11.30;93.60;;;;;;5033528;28;20450;-45
2023/12/05 08:18:53;;;;;;;1.60;0.85;;;11.40;93.50;;;;;;5033268;28;20113;-45
2023/12/05 08:21:18;;;;;;;1.20;0.98;;;11.50;93.40;;;;;;5033089;28;20030;-45
2023/12/05 08:23:44;;;;;;;2.95;0.82;;;11.60;93.30;;;;;;5033231;28;20033;-45
2023/12/05 08:26:10;;;;;;;1.65;0.77;;;11.60;93.20;;;;;;5033135;28;20026;-44
2023/12/05 08:28:37;;;;;;;1.50;0.82;;;11.70;93.20;;;;;;5033009;28;20033;-46
2023/12/05 08:31:03;;;;;;;1.10;0.70;;;11.80;93.00;;;;;;5033074;28;20026;-46
2023/12/05 08:33:28;;;;;;;1.70;0.90;;;11.90;93.00;;;;;;5033135;28;20017;-45
2023/12/05 08:35:54;;;;;;;1.40;0.77;;;11.90;92.90;;;;;;5032873;28;20021;-45
2023/12/05 08:38:20;;;;;;;1.15;0.80;;;12.00;92.90;;;;;;5032910;28;20469;-43
2023/12/05 08:40:46;;;;;;;0.98;0.80;;;12.00;93.20;;;;;;5032901;28;20034;-44
2023/12/05 08:43:11;;;;;;;1.23;0.68;;;12.10;92.80;;;;;;5033004;28;20017;-44
2023/12/05 08:45:37;;;;;;;0.90;0.70;;;12.10;92.80;;;;;;5032876;28;20152;-43
2023/12/05 08:48:02;;;;;;;1.27;0.80;;;12.10;92.70;;;;;;5032732;28;20030;-44
2023/12/05 08:50:28;;;;;;;1.45;0.70;;;12.20;92.70;;;;;;5033096;28;20026;-43
2023/12/05 08:52:54;;;;;;;1.65;0.60;;;12.20;92.60;;;;;;5033175;28;20383;-45
2023/12/05 08:55:20;;;;;;;1.00;0.73;;;12.30;92.60;;;;;;5032918;28;20478;-45
2023/12/05 08:57:45;;;;;;;0.80;0.60;;;12.30;92.60;;;;;;5032505;28;20461;-45
2023/12/05 09:00:11;;;;;;;1.40;0.85;;;12.30;92.60;;;;;;5032783;28;20029;-44
2023/12/05 09:02:37;;;;;;;0.95;0.85;;;12.30;92.50;;;;;;5032521;28;20398;-43
2023/12/05 09:05:03;;;;;;;1.52;0.70;;;12.40;92.50;;;;;;5032378;28;20021;-45
2023/12/05 09:07:30;;;;;;;1.10;0.77;;;12.50;92.60;;;;;;5032818;28;20484;-44
2023/12/05 09:09:55;;;;;;;1.73;1.02;;;12.50;92.40;;;;;;5032348;28;20037;-45
2023/12/05 09:12:23;;;;;;;0.95;0.68;;;12.60;92.40;;;;;;5032303;28;20024;-45
2023/12/05 09:14:48;;;;;;;0.98;0.70;;;12.60;92.30;;;;;;5032280;28;20550;-45
2023/12/05 09:17:15;;;;;;;1.17;0.82;;;12.70;92.30;;;;;;5032631;28;20072;-45
2023/12/05 09:19:40;;;;;;;1.98;0.80;;;12.70;92.20;;;;;;5032588;28;20064;-44
2023/12/05 09:22:06;;;;;;;1.67;0.70;;;12.80;92.20;;;;;;5032314;28;20056;-44
2023/12/05 09:24:32;;;;;;;1.05;0.70;;;12.80;92.10;;;;;;5032168;28;20056;-44
2023/12/05 09:26:58;;;;;;;0.90;0.68;;;12.80;92.00;;;;;;5032090;28;20073;-43
2023/12/05 09:29:24;;;;;;;1.77;0.52;;;12.80;92.30;;;;;;5031867;28;20494;-44
2023/12/05 09:31:49;;;;;;;1.67;0.90;;;12.90;91.90;;;;;;5032574;28;20101;-45
2023/12/05 09:34:15;;;;;;;0.93;0.73;;;12.90;91.90;;;;;;5032303;28;20394;-43
2023/12/05 09:36:40;;;;;;;1.85;0.88;;;13.00;91.80;;;;;;5031881;28;20475;-45
2023/12/05 09:39:10;;;;;;;1.35;0.70;;;13.00;91.80;;;;;;5032932;28;20033;-44
2023/12/05 09:41:41;;;;;;;2.10;0.85;;;13.10;91.80;;;;;;5032241;28;20048;-45
2023/12/05 09:44:08;;;;;;;1.63;0.85;;;13.10;91.70;;;;;;5032449;28;20026;-45
2023/12/05 09:46:36;;;;;;;0.80;0.63;;;13.10;91.60;;;;;;5031667;28;20548;-44
2023/12/05 09:49:08;;;;;;;1.08;0.77;;;13.10;91.60;;;;;;5031551;28;20028;-45
2023/12/05 09:51:35;;;;;;;0.85;0.65;;;13.20;91.60;;;;;;5031750;28;20025;-45
2023/12/05 09:54:01;;;;;;;1.08;0.50;;;13.20;91.50;;;;;;5031817;28;20228;-44
2023/12/05 09:56:28;;;;;;;1.42;0.75;;;13.20;91.50;;;;;;5031462;28;20387;-45
2023/12/05 09:58:54;;;;;;;1.67;0.93;;;13.20;91.40;;;;;;5031399;28;20065;-45
2023/12/05 10:01:21;;;;;;;1.02;0.77;;;13.20;91.40;;;;;;5032049;28;20029;-44
2023/12/05 10:03:54;;;;;;;1.23;0.80;;;13.30;91.30;;;;;;5031939;28;20438;-44
2023/12/05 10:06:20;;;;;;;1.58;0.77;;;13.30;91.30;;;;;;5031721;28;20079;-45
2023/12/05 10:08:49;;;;;;;1.23;0.75;;;13.30;91.30;;;;;;5030001;28;20033;-44
2023/12/05 10:11:16;;;;;;;1.67;0.70;;;13.30;91.20;;;;;;5031580;28;20025;-45
2023/12/05 10:13:44;;;;;;;1.20;0.70;;;13.30;91.20;;;;;;5031873;28;20017;-45
2023/12/05 10:16:10;;;;;;;1.50;0.63;;;13.30;91.20;;;;;;5031675;28;20048;-45
2023/12/05 10:18:38;;;;;;;1.38;0.90;;;13.40;91.10;;;;;;5031599;28;20060;-45
2023/12/05 10:21:05;;;;;;;0.95;0.75;;;13.40;91.10;;;;;;5031392;28;20446;-45
2023/12/05 10:23:31;;;;;;;1.58;0.70;;;13.40;91.10;;;;;;5031462;28;20109;-45
2023/12/05 10:25:56;;;;;;;1.33;0.77;;;13.40;91.10;;;;;;5030880;28;20518;-44
2023/12/05 10:28:23;;;;;;;1.33;0.55;;;13.40;91.10;;;;;;5031168;28;20384;-45
2023/12/05 10:30:48;;;;;;;1.75;0.90;;;13.40;91.10;;;;;;5031230;28;20082;-45
2023/12/05 10:33:21;;;;;;;1.60;0.80;;;13.40;91.00;;;;;;5031634;28;20049;-43
2023/12/05 10:35:47;;;;;;;0.88;0.63;;;13.40;91.00;;;;;;5031067;28;20049;-45
2023/12/05 10:38:17;;;;;;;1.60;0.75;;;13.40;91.00;;;;;;5030838;28;20037;-45
2023/12/05 10:40:57;;;;;;;2.25;0.80;;;13.40;91.00;;;;;;5031859;28;20028;-45
2023/12/05 10:43:24;;;;;;;1.65;0.73;;;13.40;91.00;;;;;;5031093;28;20025;-43
2023/12/05 10:45:51;;;;;;;0.70;0.65;;;13.50;91.00;;;;;;5030971;28;20484;-45
2023/12/05 10:48:18;;;;;;;1.65;0.70;;;13.50;91.40;;;;;;5030936;28;20037;-45
2023/12/05 10:50:46;;;;;;;0.82;0.57;;;13.50;91.00;;;;;;5030955;28;20021;-44
2023/12/05 10:53:13;;;;;;;2.67;0.60;;;13.50;91.00;;;;;;5031287;28;20364;-45
2023/12/05 10:55:39;;;;;;;2.05;0.77;;;13.50;91.00;;;;;;5030892;28;20024;-46
2023/12/05 10:58:05;;;;;;;1.77;0.70;;;13.50;91.00;;;;;;5030878;28;20025;-44
2023/12/05 11:00:31;;;;;;;1.30;0.88;;;13.50;91.00;;;;;;5030991;28;20479;-44
2023/12/05 11:02:57;;;;;;;2.30;0.93;;;13.60;91.00;;;;;;5030933;28;20034;-45
2023/12/05 11:05:23;;;;;;;1.20;0.70;;;13.60;91.00;;;;;;5031428;28;20028;-44
2023/12/05 11:07:51;;;;;;;1.40;0.80;;;13.60;91.00;;;;;;5031689;28;20025;-44
2023/12/05 11:10:17;;;;;;;1.30;0.60;;;13.70;91.00;;;;;;5031336;28;20086;-45
2023/12/05 11:12:47;;;;;;;0.77;0.60;;;13.70;90.90;;;;;;5030877;28;20071;-44
2023/12/05 11:15:15;;;;;;;1.40;0.77;;;13.70;90.90;;;;;;5031075;28;20025;-44
2023/12/05 11:17:48;;;;;;;1.63;0.70;;;13.80;90.90;;;;;;5030755;28;20132;-44
2023/12/05 11:20:23;;;;;;;1.08;0.63;;;13.80;90.90;;;;;;5031289;28;20079;-45
2023/12/05 11:23:10;;;;;;;1.98;0.90;;;13.90;90.90;;;;;;5034495;28;20034;-43
2023/12/05 11:26:13;;;;;;;1.33;0.57;;;13.90;90.90;;;;;;5035121;28;20037;-45
2023/12/05 11:29:17;;;;;;;1.20;0.65;;;14.00;90.90;;;;;;5033051;28;20042;-43
2023/12/05 11:32:01;;;;;;;1.40;0.60;;;14.00;90.80;;;;;;5034281;28;20475;-45
2023/12/05 11:34:41;;;;;;;1.83;1.00;;;14.10;90.80;;;;;;5034431;28;20032;-43
2023/12/05 11:37:44;;;;;;;1.83;1.05;;;14.10;90.80;;;;;;5034501;28;20025;-44
2023/12/05 11:40:10;;;;;;;1.38;0.85;;;14.20;91.00;;;;;;5034361;28;20053;-43
2023/12/05 11:42:36;;;;;;;2.95;1.10;;;14.30;91.10;;;;;;5034209;28;20525;-43
2023/12/05 11:45:23;;;;;;;2.28;1.00;;;14.30;91.10;;;;;;5034046;28;20017;-43
2023/12/05 11:47:50;;;;;;;2.90;0.90;;;14.40;91.10;;;;;;5033833;28;20017;-44
2023/12/05 11:50:16;;;;;;;2.70;1.00;;;14.40;91.00;;;;;;5033890;28;20037;-43
2023/12/05 11:52:42;;;;;;;2.38;1.10;;;14.50;90.90;;;;;;5033862;28;20049;-43
2023/12/05 11:55:11;;;;;;;2.72;1.13;;;14.50;90.90;;;;;;5034106;28;20068;-43
2023/12/05 11:57:37;;;;;;;2.88;1.00;;;14.60;90.80;;;;;;5033934;28;20068;-43
2023/12/05 12:00:03;;;;;;;1.48;0.90;;;14.60;90.80;;;;;;5033760;28;20056;-43
2023/12/05 12:02:32;;;;;;;1.40;0.70;;;14.70;90.70;;;;;;5033819;28;20108;-43
2023/12/05 12:05:11;;;;;;;1.77;1.00;;;14.70;90.60;;;;;;5033694;28;20025;-43
2023/12/05 12:07:56;;;;;;;3.55;1.05;;;14.80;90.90;;;;;;5033420;28;20053;-43
2023/12/05 12:10:23;;;;;;;1.65;0.73;;;14.90;90.50;;;;;;5033905;28;20029;-43
2023/12/05 12:12:50;;;;;;;1.58;0.70;;;14.90;90.40;;;;;;5033783;28;20025;-43
2023/12/05 12:15:16;;;;;;;2.20;0.90;;;14.90;90.70;;;;;;5033488;28;20067;-43
2023/12/05 12:17:43;;;;;;;1.55;0.80;;;15.00;90.30;;;;;;5033218;28;20036;-43
2023/12/05 12:20:16;;;;;;;1.58;0.90;;;15.00;90.20;;;;;;5033324;28;20444;-43
2023/12/05 12:22:43;;;;;;;1.63;0.70;;;15.10;90.20;;;;;;5033230;28;20112;-43
2023/12/05 12:25:13;;;;;;;1.38;0.70;;;15.10;90.10;;;;;;5033233;28;20097;-43
2023/12/05 12:27:40;;;;;;;1.27;0.70;;;15.10;90.00;;;;;;5032946;28;20025;-41
2023/12/05 12:30:13;;;;;;;1.33;0.70;;;15.20;90.30;;;;;;5033107;28;20268;-43
2023/12/05 12:32:56;;;;;;;1.30;0.68;;;15.30;90.10;;;;;;5033105;28;20101;-43
2023/12/05 12:35:22;;;;;;;1.73;0.73;;;15.30;89.70;;;;;;5033053;28;20379;-43
2023/12/05 12:37:50;;;;;;;1.13;0.60;;;15.30;89.50;;;;;;5032816;28;20478;-43
2023/12/05 12:40:18;;;;;;;1.48;0.60;;;15.40;89.40;;;;;;5032824;28;20446;-43
2023/12/05 12:42:47;;;;;;;2.00;0.80;;;15.40;89.30;;;;;;5032927;28;20383;-43
2023/12/05 12:45:12;;;;;;;1.48;0.60;;;15.40;89.20;;;;;;5032833;28;20083;-43
2023/12/05 12:47:40;;;;;;;1.58;0.90;;;15.50;89.10;;;;;;5032621;28;20383;-43